createdAt,value
2018-06-16T00:01:19.840Z,100.00
2018-06-16T00:03:47.778Z,100.00
2018-06-16T00:06:15.812Z,100.00
2018-06-16T00:08:43.896Z,100.00
2018-06-16T00:11:11.871Z,100.00
2018-06-16T00:13:39.869Z,100.00
2018-06-16T00:16:07.984Z,100.00
2018-06-16T00:18:35.937Z,100.00
2018-06-16T00:21:04.024Z,100.00
2018-06-16T00:23:32.034Z,100.00
2018-06-16T00:26:00.114Z,100.00
2018-06-16T00:28:28.178Z,100.00
2018-06-16T00:30:56.595Z,100.00
2018-06-16T00:33:25.020Z,100.00
2018-06-16T00:35:53.053Z,100.00
2018-06-16T00:38:21.053Z,100.00
2018-06-16T00:40:49.176Z,100.00
2018-06-16T00:43:17.189Z,100.00
2018-06-16T00:45:45.285Z,100.00
2018-06-16T00:48:13.275Z,100.00
2018-06-16T00:50:41.345Z,100.00
2018-06-16T00:53:09.389Z,100.00
2018-06-16T00:55:37.470Z,100.00
2018-06-16T00:58:05.453Z,100.00
2018-06-16T01:00:33.468Z,100.00
2018-06-16T01:03:02.413Z,100.00
2018-06-16T01:05:30.439Z,100.00
2018-06-16T01:07:58.586Z,100.00
2018-06-16T01:10:26.730Z,100.00
2018-06-16T01:12:54.700Z,100.00
2018-06-16T01:15:22.669Z,100.00
2018-06-16T01:17:50.752Z,100.00
2018-06-16T01:20:18.768Z,100.00
2018-06-16T01:22:46.747Z,100.00
2018-06-16T01:25:14.828Z,100.00
2018-06-16T01:27:42.888Z,100.00
2018-06-16T01:30:10.911Z,100.00
2018-06-16T01:32:38.978Z,100.00
2018-06-16T01:35:07.080Z,100.00
2018-06-16T01:37:35.253Z,100.00
2018-06-16T01:40:03.395Z,100.00
2018-06-16T01:42:31.509Z,100.00
2018-06-16T01:44:59.584Z,100.00
2018-06-16T01:47:27.684Z,100.00
2018-06-16T01:49:55.799Z,100.00
2018-06-16T01:52:23.920Z,100.00
2018-06-16T01:54:51.887Z,100.00
2018-06-16T01:57:19.971Z,100.00
2018-06-16T01:59:47.983Z,100.00
2018-06-16T02:02:15.994Z,100.00
2018-06-16T02:04:44.069Z,100.00
2018-06-16T02:07:12.139Z,100.00
2018-06-16T02:09:40.207Z,100.00
2018-06-16T02:12:08.219Z,100.00
2018-06-16T02:14:36.249Z,100.00
2018-06-16T02:17:05.624Z,100.00
2018-06-16T02:19:33.619Z,100.00
2018-06-16T02:22:01.631Z,100.00
2018-06-16T02:24:29.733Z,100.00
2018-06-16T02:26:57.840Z,100.00
2018-06-16T02:29:25.968Z,100.00
2018-06-16T02:31:54.000Z,100.00
2018-06-16T02:34:22.030Z,100.00
2018-06-16T02:36:50.047Z,100.00
2018-06-16T02:39:18.047Z,100.00
2018-06-16T02:41:46.085Z,100.00
2018-06-16T02:44:14.088Z,100.00
2018-06-16T02:46:42.148Z,100.00
2018-06-16T02:49:10.187Z,100.00
2018-06-16T02:51:38.252Z,100.00
2018-06-16T02:54:06.338Z,100.00
2018-06-16T02:56:34.548Z,100.00
2018-06-16T02:59:02.571Z,100.00
2018-06-16T03:01:30.609Z,100.00
2018-06-16T03:03:58.692Z,100.00
2018-06-16T03:06:26.806Z,100.00
2018-06-16T03:08:54.816Z,100.00
2018-06-16T03:11:22.812Z,100.00
2018-06-16T03:13:50.837Z,100.00
2018-06-16T03:16:18.925Z,100.00
2018-06-16T03:18:46.955Z,100.00
2018-06-16T03:21:15.016Z,100.00
2018-06-16T03:23:43.113Z,100.00
2018-06-16T03:26:11.256Z,100.00
2018-06-16T03:28:39.259Z,100.00
2018-06-16T03:31:07.432Z,100.00
2018-06-16T03:33:35.417Z,100.00
2018-06-16T03:36:03.558Z,100.00
2018-06-16T03:38:31.760Z,100.00
2018-06-16T03:40:59.822Z,100.00
2018-06-16T03:43:27.954Z,100.00
2018-06-16T03:45:57.429Z,100.00
2018-06-16T03:48:25.619Z,100.00
2018-06-16T03:50:53.761Z,100.00
2018-06-16T03:53:21.853Z,100.00
2018-06-16T03:55:49.896Z,100.00
2018-06-16T03:58:17.911Z,99.82
2018-06-16T04:00:45.993Z,96.94
2018-06-16T04:03:14.156Z,94.45
2018-06-16T04:05:42.420Z,89.24
2018-06-16T04:08:10.569Z,85.86
2018-06-16T04:10:38.627Z,85.77
2018-06-16T04:13:06.728Z,85.17
2018-06-16T04:15:34.889Z,86.32
2018-06-16T04:18:02.987Z,82.38
2018-06-16T04:20:31.016Z,83.92
2018-06-16T04:22:59.013Z,85.52
2018-06-16T04:25:26.972Z,84.23
2018-06-16T04:27:55.148Z,85.19
2018-06-16T04:30:23.188Z,79.35
2018-06-16T04:32:51.251Z,80.56
2018-06-16T04:35:19.414Z,82.50
2018-06-16T04:37:47.568Z,84.39
2018-06-16T04:40:15.722Z,86.79
2018-06-16T04:42:43.970Z,87.82
2018-06-16T04:45:12.048Z,90.81
2018-06-16T04:47:40.393Z,88.87
2018-06-16T04:50:08.420Z,91.89
2018-06-16T04:52:36.601Z,91.95
2018-06-16T04:55:04.868Z,91.74
2018-06-16T04:57:33.129Z,90.30
2018-06-16T05:00:01.262Z,89.05
2018-06-16T05:02:29.679Z,90.17
2018-06-16T05:04:59.050Z,86.34
2018-06-16T05:07:27.293Z,89.43
2018-06-16T05:09:55.494Z,92.05
2018-06-16T05:12:23.696Z,89.70
2018-06-16T05:14:51.962Z,91.41
2018-06-16T05:17:20.376Z,90.73
2018-06-16T05:19:48.617Z,89.15
2018-06-16T05:22:16.861Z,90.22
2018-06-16T05:24:45.001Z,91.94
2018-06-16T05:27:13.528Z,87.31
2018-06-16T05:29:41.914Z,88.02
2018-06-16T05:32:10.190Z,83.25
2018-06-16T05:34:38.412Z,85.85
2018-06-16T05:37:07.896Z,83.90
2018-06-16T05:39:36.329Z,81.29
2018-06-16T05:42:04.741Z,83.36
2018-06-16T05:44:32.883Z,85.62
2018-06-16T05:47:01.632Z,83.46
2018-06-16T05:49:29.906Z,84.91
2018-06-16T05:51:58.071Z,87.57
2018-06-16T05:54:26.261Z,87.51
2018-06-16T05:56:54.679Z,87.14
2018-06-16T05:59:23.392Z,86.67
2018-06-16T06:01:51.632Z,85.53
2018-06-16T06:04:19.916Z,85.01
2018-06-16T06:06:48.152Z,85.42
2018-06-16T06:09:16.382Z,83.55
2018-06-16T06:11:44.627Z,81.61
2018-06-16T06:14:12.923Z,82.97
2018-06-16T06:16:41.180Z,78.80
2018-06-16T06:19:09.340Z,79.04
2018-06-16T06:21:37.534Z,76.70
2018-06-16T06:24:06.184Z,78.38
2018-06-16T06:26:34.390Z,75.95
2018-06-16T06:29:02.528Z,73.47
2018-06-16T06:31:30.755Z,74.34
2018-06-16T06:33:58.943Z,71.85
2018-06-16T06:36:27.261Z,71.25
2018-06-16T06:38:55.556Z,76.71
2018-06-16T06:41:23.892Z,78.27
2018-06-16T06:43:53.080Z,70.91
2018-06-16T06:46:22.404Z,67.39
2018-06-16T06:48:50.533Z,71.07
2018-06-16T06:51:19.015Z,70.00
2018-06-16T06:53:47.281Z,70.90
2018-06-16T06:56:17.015Z,68.34
2018-06-16T06:58:45.126Z,69.62
2018-06-16T07:01:13.384Z,75.87
2018-06-16T07:03:41.675Z,68.21
2018-06-16T07:06:11.933Z,75.97
2018-06-16T07:08:40.544Z,71.87
2018-06-16T07:11:08.784Z,73.13
2018-06-16T07:13:37.670Z,75.55
2018-06-16T07:16:08.355Z,72.53
2018-06-16T07:18:36.483Z,68.12
2018-06-16T07:21:04.894Z,66.68
2018-06-16T07:23:33.219Z,64.26
2018-06-16T07:26:01.767Z,66.50
2018-06-16T07:28:30.288Z,70.87
2018-06-16T07:30:58.450Z,69.67
2018-06-16T07:33:26.776Z,72.95
2018-06-16T07:35:55.083Z,64.42
2018-06-16T07:38:23.483Z,62.11
2018-06-16T07:40:52.047Z,64.30
2018-06-16T07:43:20.704Z,63.14
2018-06-16T07:45:49.760Z,62.46
2018-06-16T07:48:27.521Z,63.48
2018-06-16T07:50:55.938Z,63.19
2018-06-16T07:53:24.303Z,59.67
2018-06-16T07:55:52.578Z,64.59
2018-06-16T07:58:20.832Z,69.94
2018-06-16T08:00:49.608Z,62.15
2018-06-16T08:03:17.884Z,67.69
2018-06-16T08:05:46.556Z,65.63
2018-06-16T08:08:16.112Z,68.58
2018-06-16T08:10:44.862Z,70.94
2018-06-16T08:13:13.219Z,63.77
2018-06-16T08:15:41.715Z,70.79
2018-06-16T08:18:10.035Z,65.22
2018-06-16T08:20:38.704Z,67.06
2018-06-16T08:23:07.392Z,64.27
2018-06-16T08:25:36.684Z,68.35
2018-06-16T08:28:05.524Z,74.01
2018-06-16T08:30:33.762Z,71.85
2018-06-16T08:33:02.512Z,65.79
2018-06-16T08:35:31.726Z,68.49
2018-06-16T08:38:00.419Z,61.03
2018-06-16T08:40:28.933Z,62.92
2018-06-16T08:42:57.492Z,68.10
2018-06-16T08:45:25.982Z,67.66
2018-06-16T08:47:54.501Z,67.99
2018-06-16T08:50:22.884Z,67.88
2018-06-16T08:52:51.366Z,70.53
2018-06-16T08:55:19.724Z,69.54
2018-06-16T08:57:48.320Z,67.67
2018-06-16T09:00:17.695Z,65.28
2018-06-16T09:02:46.140Z,61.26
2018-06-16T09:05:14.404Z,61.14
2018-06-16T09:07:43.826Z,62.53
2018-06-16T09:10:11.993Z,64.39
2018-06-16T09:12:40.795Z,71.05
2018-06-16T09:15:09.139Z,69.69
2018-06-16T09:17:39.651Z,66.62
2018-06-16T09:20:07.906Z,63.51
2018-06-16T09:22:36.989Z,63.09
2018-06-16T09:25:05.092Z,64.83
2018-06-16T09:27:33.343Z,61.43
2018-06-16T09:30:01.441Z,66.78
2018-06-16T09:32:30.391Z,60.56
2018-06-16T09:34:58.964Z,63.93
2018-06-16T09:37:30.275Z,61.07
2018-06-16T09:39:58.439Z,61.82
2018-06-16T09:42:26.799Z,64.45
2018-06-16T09:44:55.586Z,58.15
2018-06-16T09:47:24.055Z,58.27
2018-06-16T09:49:52.441Z,51.88
2018-06-16T09:52:20.952Z,53.03
2018-06-16T09:54:50.356Z,53.70
2018-06-16T09:57:18.834Z,56.90
2018-06-16T09:59:47.323Z,51.95
2018-06-16T10:02:15.702Z,54.03
2018-06-16T10:04:43.974Z,56.41
2018-06-16T10:07:13.548Z,53.26
2018-06-16T10:09:41.986Z,60.15
2018-06-16T10:12:10.772Z,56.58
2018-06-16T10:14:39.147Z,59.99
2018-06-16T10:17:08.616Z,60.42
2018-06-16T10:19:37.130Z,62.88
2018-06-16T10:22:05.565Z,54.84
2018-06-16T10:24:33.889Z,58.42
2018-06-16T10:27:02.510Z,53.21
2018-06-16T10:29:30.841Z,56.44
2018-06-16T10:31:59.097Z,49.27
2018-06-16T10:34:27.983Z,54.28
2018-06-16T10:36:56.999Z,51.57
2018-06-16T10:39:25.626Z,51.75
2018-06-16T10:41:53.918Z,57.53
2018-06-16T10:44:22.270Z,51.78
2018-06-16T10:46:51.909Z,55.01
2018-06-16T10:49:20.909Z,53.38
2018-06-16T10:51:49.694Z,52.21
2018-06-16T10:54:18.161Z,53.21
2018-06-16T10:56:46.973Z,50.40
2018-06-16T10:59:15.658Z,52.65
2018-06-16T11:01:44.484Z,53.30
2018-06-16T11:04:12.897Z,51.53
2018-06-16T11:06:41.412Z,47.98
2018-06-16T11:09:10.765Z,47.59
2018-06-16T11:11:40.985Z,49.22
2018-06-16T11:14:09.928Z,53.83
2018-06-16T11:16:38.959Z,54.71
2018-06-16T11:19:08.046Z,52.37
2018-06-16T11:21:37.020Z,51.56
2018-06-16T11:24:05.777Z,52.65
2018-06-16T11:26:34.487Z,56.30
2018-06-16T11:29:03.049Z,55.14
2018-06-16T11:31:31.544Z,55.80
2018-06-16T11:34:00.344Z,54.69
2018-06-16T11:36:29.455Z,54.57
2018-06-16T11:38:58.718Z,54.64
2018-06-16T11:41:28.040Z,57.07
2018-06-16T11:43:57.578Z,61.44
2018-06-16T11:46:26.297Z,56.36
2018-06-16T11:48:56.471Z,55.29
2018-06-16T11:51:26.019Z,60.87
2018-06-16T11:53:55.872Z,57.38
2018-06-16T11:56:25.444Z,53.90
2018-06-16T11:58:56.016Z,55.08
2018-06-16T12:01:27.102Z,55.67
2018-06-16T12:03:57.418Z,58.38
2018-06-16T12:06:27.791Z,57.15
2018-06-16T12:08:57.716Z,55.51
2018-06-16T12:11:27.223Z,58.78
2018-06-16T12:13:56.475Z,61.63
2018-06-16T12:16:25.730Z,63.17
2018-06-16T12:18:54.994Z,64.32
2018-06-16T12:21:25.394Z,66.64
2018-06-16T12:23:54.172Z,67.04
2018-06-16T12:26:25.452Z,67.03
2018-06-16T12:28:55.093Z,69.75
2018-06-16T12:31:24.698Z,68.82
2018-06-16T12:33:55.178Z,68.02
2018-06-16T12:36:24.605Z,70.32
2018-06-16T12:38:55.006Z,71.02
2018-06-16T12:41:24.861Z,76.18
2018-06-16T12:43:54.047Z,74.22
2018-06-16T12:46:23.952Z,72.79
2018-06-16T12:48:53.435Z,69.83
2018-06-16T12:51:23.076Z,72.46
2018-06-16T12:53:53.443Z,69.82
2018-06-16T12:56:22.820Z,68.41
2018-06-16T12:58:51.877Z,68.24
2018-06-16T13:01:23.156Z,69.53
2018-06-16T13:03:52.721Z,69.33
2018-06-16T13:06:21.322Z,71.19
2018-06-16T13:08:50.338Z,78.39
2018-06-16T13:11:19.274Z,83.87
2018-06-16T13:13:48.190Z,84.95
2018-06-16T13:16:17.191Z,85.58
2018-06-16T13:18:49.252Z,85.86
2018-06-16T13:21:23.417Z,87.69
2018-06-16T13:23:55.497Z,86.36
2018-06-16T13:26:33.113Z,88.42
2018-06-16T13:29:03.053Z,88.99
2018-06-16T13:31:35.886Z,91.90
2018-06-16T13:34:09.165Z,93.42
2018-06-16T13:36:38.017Z,91.48
2018-06-16T13:39:11.327Z,92.61
2018-06-16T13:41:41.354Z,94.89
2018-06-16T13:44:13.991Z,95.84
2018-06-16T13:46:47.173Z,93.36
2018-06-16T13:49:18.099Z,93.36
2018-06-16T13:51:50.217Z,94.15
2018-06-16T13:54:24.174Z,91.82
2018-06-16T13:56:58.878Z,93.24
2018-06-16T13:59:29.704Z,93.93
2018-06-16T14:01:59.151Z,96.00
2018-06-16T14:04:28.564Z,94.18
2018-06-16T14:06:59.479Z,94.56
2018-06-16T14:09:34.196Z,94.76
2018-06-16T14:12:04.837Z,94.11
2018-06-16T14:14:39.057Z,94.33
2018-06-16T14:17:08.564Z,80.84
2018-06-16T14:19:38.816Z,87.96
2018-06-16T14:22:08.279Z,94.43
2018-06-16T14:24:37.302Z,88.12
2018-06-16T14:27:06.365Z,84.25
2018-06-16T14:29:35.215Z,89.60
2018-06-16T14:32:05.599Z,91.58
2018-06-16T14:34:37.525Z,88.99
2018-06-16T14:37:07.349Z,91.36
2018-06-16T14:39:36.915Z,89.17
2018-06-16T14:42:06.594Z,89.32
2018-06-16T14:44:35.688Z,90.98
2018-06-16T14:47:04.828Z,89.37
2018-06-16T14:49:34.530Z,86.38
2018-06-16T14:52:05.592Z,91.03
2018-06-16T14:54:35.609Z,81.33
2018-06-16T14:57:06.014Z,88.72
2018-06-16T14:59:37.044Z,87.38
2018-06-16T15:02:07.641Z,93.00
2018-06-16T15:04:36.514Z,93.96
2018-06-16T15:07:06.128Z,89.75
2018-06-16T15:09:35.088Z,89.04
2018-06-16T15:12:06.390Z,93.72
2018-06-16T15:14:36.154Z,92.33
2018-06-16T15:17:06.491Z,88.28
2018-06-16T15:19:35.707Z,91.33
2018-06-16T15:22:05.153Z,94.85
2018-06-16T15:24:34.450Z,92.73
2018-06-16T15:27:03.835Z,89.79
2018-06-16T15:29:33.478Z,87.78
2018-06-16T15:32:02.952Z,84.40
2018-06-16T15:34:32.422Z,84.36
2018-06-16T15:37:05.335Z,83.97
2018-06-16T15:39:34.992Z,84.70
2018-06-16T15:42:03.910Z,90.67
2018-06-16T15:44:32.503Z,92.35
2018-06-16T15:47:01.138Z,92.66
2018-06-16T15:49:31.321Z,88.88
2018-06-16T15:51:59.764Z,91.16
2018-06-16T15:54:28.513Z,91.71
2018-06-16T15:56:57.318Z,87.91
2018-06-16T15:59:26.565Z,91.00
2018-06-16T16:01:55.852Z,93.11
2018-06-16T16:04:25.353Z,90.13
2018-06-16T16:06:54.120Z,91.18
2018-06-16T16:09:23.073Z,91.50
2018-06-16T16:11:52.053Z,89.31
2018-06-16T16:14:21.694Z,90.58
2018-06-16T16:16:50.471Z,90.76
2018-06-16T16:19:18.942Z,92.61
2018-06-16T16:21:47.415Z,93.69
2018-06-16T16:24:15.900Z,93.79
2018-06-16T16:26:44.775Z,93.14
2018-06-16T16:29:13.244Z,92.81
2018-06-16T16:31:41.671Z,93.44
2018-06-16T16:34:10.620Z,93.84
2018-06-16T16:36:39.309Z,95.86
2018-06-16T16:39:09.361Z,95.22
2018-06-16T16:41:38.517Z,95.12
2018-06-16T16:44:07.473Z,96.19
2018-06-16T16:46:36.566Z,97.04
2018-06-16T16:49:05.112Z,96.71
2018-06-16T16:51:33.654Z,97.79
2018-06-16T16:54:02.170Z,97.21
2018-06-16T16:56:30.745Z,98.69
2018-06-16T16:58:59.259Z,97.82
2018-06-16T17:01:28.190Z,97.95
2018-06-16T17:03:56.582Z,98.51
2018-06-16T17:06:25.643Z,98.33
2018-06-16T17:08:54.134Z,97.91
2018-06-16T17:11:23.089Z,98.91
2018-06-16T17:13:51.677Z,99.22
2018-06-16T17:16:20.574Z,99.60
2018-06-16T17:18:49.280Z,99.28
2018-06-16T17:21:18.647Z,99.70
2018-06-16T17:23:50.832Z,100.00
2018-06-16T17:26:20.799Z,99.57
2018-06-16T17:28:50.657Z,100.00
2018-06-16T17:31:20.008Z,99.80
2018-06-16T17:33:49.457Z,98.77
2018-06-16T17:36:18.994Z,100.00
2018-06-16T17:38:48.225Z,100.00
2018-06-16T17:41:17.356Z,100.00
2018-06-16T17:43:49.572Z,100.00
2018-06-16T17:46:20.963Z,100.00
2018-06-16T17:48:51.994Z,100.00
2018-06-16T17:51:23.860Z,100.00
2018-06-16T17:53:55.386Z,100.00
2018-06-16T17:56:24.884Z,100.00
2018-06-16T17:58:55.807Z,100.00
2018-06-16T18:01:27.022Z,100.00
2018-06-16T18:03:59.755Z,100.00
2018-06-16T18:06:30.465Z,100.00
2018-06-16T18:09:00.571Z,100.00
2018-06-16T18:11:31.950Z,100.00
2018-06-16T18:14:02.520Z,100.00
2018-06-16T18:16:32.555Z,100.00
2018-06-16T18:19:02.476Z,100.00
2018-06-16T18:21:32.005Z,100.00
2018-06-16T18:24:02.849Z,100.00
2018-06-16T18:26:33.475Z,100.00
2018-06-16T18:29:05.039Z,100.00
2018-06-16T18:31:35.271Z,100.00
2018-06-16T18:34:05.182Z,100.00
2018-06-16T18:36:34.633Z,100.00
2018-06-16T18:39:06.639Z,100.00
2018-06-16T18:41:38.421Z,100.00
2018-06-16T18:44:09.749Z,100.00
2018-06-16T18:46:40.527Z,100.00
2018-06-16T18:49:12.262Z,100.00
2018-06-16T18:51:43.097Z,100.00
2018-06-16T18:54:15.856Z,100.00
2018-06-16T18:56:46.784Z,100.00
2018-06-16T18:59:18.896Z,100.00
2018-06-16T19:01:51.765Z,100.00
2018-06-16T19:04:23.712Z,100.00
2018-06-16T19:06:55.109Z,100.00
2018-06-16T19:09:26.841Z,100.00
2018-06-16T19:12:00.844Z,100.00
2018-06-16T19:14:31.519Z,100.00
2018-06-16T19:17:04.308Z,100.00
2018-06-16T19:19:33.907Z,100.00
2018-06-16T19:22:04.163Z,100.00
2018-06-16T19:24:33.504Z,100.00
2018-06-16T19:27:04.393Z,100.00
2018-06-16T19:29:33.921Z,100.00
2018-06-16T19:32:03.237Z,100.00
2018-06-16T19:34:32.512Z,100.00
2018-06-16T19:37:02.091Z,100.00
2018-06-16T19:39:32.358Z,100.00
2018-06-16T19:42:02.941Z,100.00
2018-06-16T19:44:33.904Z,100.00
2018-06-16T19:47:04.873Z,100.00
2018-06-16T19:49:36.702Z,100.00
2018-06-16T19:52:08.182Z,100.00
2018-06-16T19:54:39.431Z,100.00
2018-06-16T19:57:09.900Z,100.00
2018-06-16T19:59:39.878Z,100.00
2018-06-16T20:02:10.237Z,100.00
2018-06-16T20:04:41.145Z,100.00
2018-06-16T20:07:12.232Z,100.00
2018-06-16T20:09:41.779Z,100.00
2018-06-16T20:12:11.763Z,100.00
2018-06-16T20:14:41.422Z,100.00
2018-06-16T20:17:10.924Z,100.00
2018-06-16T20:19:40.211Z,100.00
2018-06-16T20:22:10.821Z,100.00
2018-06-16T20:24:40.523Z,100.00
2018-06-16T20:27:10.588Z,100.00
2018-06-16T20:29:41.079Z,100.00
2018-06-16T20:32:10.822Z,100.00
2018-06-16T20:34:40.505Z,100.00
2018-06-16T20:37:10.708Z,100.00
2018-06-16T20:39:39.527Z,100.00
2018-06-16T20:42:08.196Z,100.00
2018-06-16T20:44:36.927Z,100.00
2018-06-16T20:47:06.757Z,100.00
2018-06-16T20:49:37.276Z,100.00
2018-06-16T20:52:06.183Z,100.00
2018-06-16T20:54:35.534Z,100.00
2018-06-16T20:57:04.496Z,100.00
2018-06-16T20:59:33.644Z,100.00
2018-06-16T21:02:02.731Z,100.00
2018-06-16T21:04:31.533Z,100.00
2018-06-16T21:07:00.270Z,100.00
2018-06-16T21:09:28.999Z,100.00
2018-06-16T21:11:57.665Z,100.00
2018-06-16T21:14:26.341Z,100.00
2018-06-16T21:16:54.950Z,100.00
2018-06-16T21:19:23.561Z,100.00
2018-06-16T21:21:52.272Z,100.00
2018-06-16T21:24:20.972Z,100.00
2018-06-16T21:26:49.655Z,100.00
2018-06-16T21:29:19.475Z,100.00
2018-06-16T21:31:48.079Z,100.00
2018-06-16T21:34:16.708Z,100.00
2018-06-16T21:36:45.273Z,100.00
2018-06-16T21:39:15.366Z,100.00
2018-06-16T21:41:43.772Z,100.00
2018-06-16T21:44:11.926Z,100.00
2018-06-16T21:46:40.098Z,100.00
2018-06-16T21:49:08.231Z,100.00
2018-06-16T21:51:36.407Z,100.00
2018-06-16T21:54:04.573Z,100.00
2018-06-16T21:56:32.684Z,100.00
2018-06-16T21:59:01.126Z,100.00
2018-06-16T22:01:33.205Z,100.00
2018-06-16T22:04:01.829Z,100.00
2018-06-16T22:06:29.956Z,100.00
2018-06-16T22:08:58.133Z,100.00
2018-06-16T22:11:26.260Z,100.00
2018-06-16T22:13:54.365Z,100.00
2018-06-16T22:16:22.440Z,100.00
2018-06-16T22:18:50.653Z,100.00
2018-06-16T22:21:18.812Z,100.00
2018-06-16T22:23:46.913Z,100.00
2018-06-16T22:26:15.100Z,100.00
2018-06-16T22:28:43.316Z,100.00
2018-06-16T22:31:11.475Z,100.00
2018-06-16T22:33:39.568Z,100.00
2018-06-16T22:36:07.829Z,100.00
2018-06-16T22:38:36.114Z,100.00
2018-06-16T22:41:04.234Z,100.00
2018-06-16T22:43:32.288Z,100.00
2018-06-16T22:46:00.391Z,100.00
2018-06-16T22:48:28.535Z,100.00
2018-06-16T22:50:56.719Z,100.00
2018-06-16T22:53:24.934Z,100.00
2018-06-16T22:55:53.145Z,100.00
2018-06-16T22:58:21.367Z,100.00
2018-06-16T23:00:49.476Z,100.00
2018-06-16T23:03:17.584Z,100.00
2018-06-16T23:05:45.701Z,100.00
2018-06-16T23:08:13.885Z,100.00
2018-06-16T23:10:41.956Z,100.00
2018-06-16T23:13:10.132Z,100.00
2018-06-16T23:15:38.287Z,100.00
2018-06-16T23:18:06.618Z,100.00
2018-06-16T23:20:34.801Z,100.00
2018-06-16T23:23:02.857Z,100.00
2018-06-16T23:25:30.999Z,100.00
2018-06-16T23:27:59.115Z,100.00
2018-06-16T23:30:27.194Z,100.00
2018-06-16T23:32:55.351Z,100.00
2018-06-16T23:35:23.506Z,100.00
2018-06-16T23:37:51.629Z,100.00
2018-06-16T23:40:19.807Z,100.00
2018-06-16T23:42:47.883Z,100.00
2018-06-16T23:45:15.985Z,100.00
2018-06-16T23:47:44.164Z,100.00
2018-06-16T23:50:12.219Z,100.00
2018-06-16T23:52:40.290Z,100.00
2018-06-16T23:55:08.369Z,100.00
2018-06-16T23:57:36.520Z,100.00
